sensor_id;sensor_type;location;lat;lon;timestamp;pressure;altitude;pressure_sealevel;temperature;humidity
79000;BME280;68406;53.914;27.416;2023-10-09T00:00:37;984.2;;;3.7;72.3
79000;BME280;68406;53.914;27.416;2023-10-09T00:06:03;984.2;;;3.5;73
79000;BME280;68406;53.914;27.416;2023-10-09T00:11:01;984.3;;;3.4;73
79000;BME280;68406;53.914;27.416;2023-10-09T00:15:49;984.3;;;3.4;72.9
79000;BME280;68406;53.914;27.416;2023-10-09T00:20:39;984.3;;;3.5;73
79000;BME280;68406;53.914;27.416;2023-10-09T00:26:03;984.5;;;3.5;73.1
79000;BME280;68406;53.914;27.416;2023-10-09T00:30:40;984.5;;;3.5;73
79000;BME280;68406;53.914;27.416;2023-10-09T00:35:37;984.5;;;3.6;72.9
79000;BME280;68406;53.914;27.416;2023-10-09T00:40:55;984.5;;;3.5;73
79000;BME280;68406;53.914;27.416;2023-10-09T00:46:05;984.6;;;3.5;72.9
79000;BME280;68406;53.914;27.416;2023-10-09T00:51:17;984.7;;;3.4;72.7
79000;BME280;68406;53.914;27.416;2023-10-09T00:56:03;984.7;;;3.4;72.6
79000;BME280;68406;53.914;27.416;2023-10-09T01:01:03;984.8;;;3.4;72.7
79000;BME280;68406;53.914;27.416;2023-10-09T01:05:56;984.8;;;3.2;72.9
79000;BME280;68406;53.914;27.416;2023-10-09T01:10:49;984.8;;;3.1;73
79000;BME280;68406;53.914;27.416;2023-10-09T01:16:18;984.8;;;3;73.2
79000;BME280;68406;53.914;27.416;2023-10-09T01:20:49;984.7;;;2.9;73.5
79000;BME280;68406;53.914;27.416;2023-10-09T01:26:01;984.7;;;2.8;74
79000;BME280;68406;53.914;27.416;2023-10-09T01:30:37;984.7;;;2.7;74.5
79000;BME280;68406;53.914;27.416;2023-10-09T01:36:17;984.7;;;2.6;75
79000;BME280;68406;53.914;27.416;2023-10-09T01:41:17;984.8;;;2.5;75.6
79000;BME280;68406;53.914;27.416;2023-10-09T01:46:03;985;;;2.4;75.8
79000;BME280;68406;53.914;27.416;2023-10-09T01:51:03;985;;;2.4;76
79000;BME280;68406;53.914;27.416;2023-10-09T01:55:47;985;;;2.3;76.3
79000;BME280;68406;53.914;27.416;2023-10-09T02:00:37;985.1;;;2.3;76.4
79000;BME280;68406;53.914;27.416;2023-10-09T02:06:17;985.2;;;2.3;76.6
79000;BME280;68406;53.914;27.416;2023-10-09T02:10:49;985.3;;;2.4;76.5
79000;BME280;68406;53.914;27.416;2023-10-09T02:15:38;985.3;;;2.4;76.6
79000;BME280;68406;53.914;27.416;2023-10-09T02:20:37;985.3;;;2.3;76.7
79000;BME280;68406;53.914;27.416;2023-10-09T02:26:03;985.3;;;2.2;77.1
79000;BME280;68406;53.914;27.416;2023-10-09T02:31:17;985.4;;;2.1;77.4
79000;BME280;68406;53.914;27.416;2023-10-09T02:36:03;985.5;;;2.1;77.8
79000;BME280;68406;53.914;27.416;2023-10-09T02:41:03;985.5;;;2;78.2
79000;BME280;68406;53.914;27.416;2023-10-09T02:45:55;985.5;;;2;78.6
79000;BME280;68406;53.914;27.416;2023-10-09T02:50:49;985.6;;;2;79
79000;BME280;68406;53.914;27.416;2023-10-09T02:56:17;985.5;;;2;79.2
79000;BME280;68406;53.914;27.416;2023-10-09T03:00:49;985.6;;;2;79.4
79000;BME280;68406;53.914;27.416;2023-10-09T03:05:53;985.6;;;2.1;79
79000;BME280;68406;53.914;27.416;2023-10-09T03:10:43;985.5;;;2.2;79
79000;BME280;68406;53.914;27.416;2023-10-09T03:16:03;985.6;;;2.4;78.6
79000;BME280;68406;53.914;27.416;2023-10-09T03:21:17;985.5;;;2.6;78.3
79000;BME280;68406;53.914;27.416;2023-10-09T03:26:03;985.5;;;2.6;78.2
79000;BME280;68406;53.914;27.416;2023-10-09T03:30:39;985.6;;;2.6;78.4
79000;BME280;68406;53.914;27.416;2023-10-09T03:35:37;985.7;;;2.5;78.7
79000;BME280;68406;53.914;27.416;2023-10-09T03:40:49;985.8;;;2.4;78.7
79000;BME280;68406;53.914;27.416;2023-10-09T03:46:17;985.8;;;2.5;78.9
79000;BME280;68406;53.914;27.416;2023-10-09T03:50:49;985.8;;;2.7;78.4
79000;BME280;68406;53.914;27.416;2023-10-09T03:55:38;985.9;;;2.8;78.4
79000;BME280;68406;53.914;27.416;2023-10-09T04:00:37;985.9;;;2.8;78.5
79000;BME280;68406;53.914;27.416;2023-10-09T04:06:03;985.9;;;2.8;78.4
79000;BME280;68406;53.914;27.416;2023-10-09T04:11:17;985.9;;;2.9;78.2
79000;BME280;68406;53.914;27.416;2023-10-09T04:16:03;985.9;;;2.9;78.2
79000;BME280;68406;53.914;27.416;2023-10-09T04:21:04;985.9;;;2.9;78.2
79000;BME280;68406;53.914;27.416;2023-10-09T04:25:53;985.9;;;2.9;78.2
79000;BME280;68406;53.914;27.416;2023-10-09T04:30:49;985.9;;;2.9;78.3
79000;BME280;68406;53.914;27.416;2023-10-09T04:36:17;986;;;2.8;78.5
79000;BME280;68406;53.914;27.416;2023-10-09T04:40:43;985.9;;;2.8;78.3
79000;BME280;68406;53.914;27.416;2023-10-09T04:45:37;986;;;2.8;78.3
79000;BME280;68406;53.914;27.416;2023-10-09T04:50:43;985.9;;;2.8;78.3
79000;BME280;68406;53.914;27.416;2023-10-09T04:56:03;985.8;;;2.8;78.4
79000;BME280;68406;53.914;27.416;2023-10-09T05:01:17;985.8;;;2.8;78.2
79000;BME280;68406;53.914;27.416;2023-10-09T05:05:37;985.8;;;2.9;77.9
79000;BME280;68406;53.914;27.416;2023-10-09T05:10:39;985.9;;;3;77.5
79000;BME280;68406;53.914;27.416;2023-10-09T05:15:53;986;;;3.3;76.8
79000;BME280;68406;53.914;27.416;2023-10-09T05:20:37;986;;;3.6;75.8
79000;BME280;68406;53.914;27.416;2023-10-09T05:26:15;986.1;;;3.8;75.1
79000;BME280;68406;53.914;27.416;2023-10-09T05:30:49;986.2;;;4;74.5
79000;BME280;68406;53.914;27.416;2023-10-09T05:35:45;986.2;;;4;73.9
79000;BME280;68406;53.914;27.416;2023-10-09T05:40:37;986.1;;;4.1;73.7
79000;BME280;68406;53.914;27.416;2023-10-09T05:46:17;986.1;;;4.2;73.1
79000;BME280;68406;53.914;27.416;2023-10-09T05:51:17;986.2;;;4.2;73
79000;BME280;68406;53.914;27.416;2023-10-09T05:55:53;986.3;;;4.4;72.4
79000;BME280;68406;53.914;27.416;2023-10-09T06:01:03;986.4;;;4.6;71.8
79000;BME280;68406;53.914;27.416;2023-10-09T06:05:48;986.4;;;4.7;71.4
79000;BME280;68406;53.914;27.416;2023-10-09T06:10:37;986.5;;;4.8;70.8
79000;BME280;68406;53.914;27.416;2023-10-09T06:16:17;986.5;;;4.9;70.4
79000;BME280;68406;53.914;27.416;2023-10-09T06:21:07;986.5;;;5.1;70
79000;BME280;68406;53.914;27.416;2023-10-09T06:25:53;986.5;;;5.3;69.3
79000;BME280;68406;53.914;27.416;2023-10-09T06:30:39;986.5;;;5.6;68.6
79000;BME280;68406;53.914;27.416;2023-10-09T06:36:11;986.6;;;5.9;67.8
79000;BME280;68406;53.914;27.416;2023-10-09T06:41:19;986.6;;;6.2;66.9
79000;BME280;68406;53.914;27.416;2023-10-09T06:45:49;986.6;;;6.3;66.5
79000;BME280;68406;53.914;27.416;2023-10-09T06:51:04;986.5;;;6.5;65.6
79000;BME280;68406;53.914;27.416;2023-10-09T06:55:53;986.5;;;6.9;64.7
79000;BME280;68406;53.914;27.416;2023-10-09T07:01:05;986.6;;;7.3;63.5
79000;BME280;68406;53.914;27.416;2023-10-09T07:06:20;986.6;;;7.5;63
79000;BME280;68406;53.914;27.416;2023-10-09T07:10:51;986.5;;;7.8;62.2
79000;BME280;68406;53.914;27.416;2023-10-09T07:15:42;986.5;;;8.1;61.4
79000;BME280;68406;53.914;27.416;2023-10-09T07:20:39;986.5;;;7.9;61.9
79000;BME280;68406;53.914;27.416;2023-10-09T07:26:05;986.6;;;7.6;62.3
79000;BME280;68406;53.914;27.416;2023-10-09T07:31:20;986.6;;;7.3;62.7
79000;BME280;68406;53.914;27.416;2023-10-09T07:35:40;986.7;;;7.2;62.9
79000;BME280;68406;53.914;27.416;2023-10-09T07:41:05;986.6;;;7.1;62.8
79000;BME280;68406;53.914;27.416;2023-10-09T07:45:57;986.5;;;7;63
79000;BME280;68406;53.914;27.416;2023-10-09T07:50:45;986.6;;;7;62.6
79000;BME280;68406;53.914;27.416;2023-10-09T07:56:19;986.6;;;7.2;62.3
79000;BME280;68406;53.914;27.416;2023-10-09T08:00:57;986.6;;;7.5;61.7
79000;BME280;68406;53.914;27.416;2023-10-09T08:05:42;986.7;;;7.7;60.8
79000;BME280;68406;53.914;27.416;2023-10-09T08:10:39;986.6;;;8;60.2
79000;BME280;68406;53.914;27.416;2023-10-09T08:16:03;986.6;;;8.6;58.8
79000;BME280;68406;53.914;27.416;2023-10-09T08:21:18;986.6;;;8.7;58.5
79000;BME280;68406;53.914;27.416;2023-10-09T08:25:59;986.6;;;8.5;58.5
79000;BME280;68406;53.914;27.416;2023-10-09T08:31:04;986.6;;;8.6;57.8
79000;BME280;68406;53.914;27.416;2023-10-09T08:35:49;986.6;;;8.6;57.6
79000;BME280;68406;53.914;27.416;2023-10-09T08:41:06;986.7;;;8.2;58.4
79000;BME280;68406;53.914;27.416;2023-10-09T08:46:20;986.7;;;8;58.9
79000;BME280;68406;53.914;27.416;2023-10-09T08:50:46;986.7;;;8;59
79000;BME280;68406;53.914;27.416;2023-10-09T08:55:45;986.8;;;8;58.5
79000;BME280;68406;53.914;27.416;2023-10-09T09:01:20;986.7;;;8.1;58.7
79000;BME280;68406;53.914;27.416;2023-10-09T09:05:58;986.7;;;8.3;58.3
79000;BME280;68406;53.914;27.416;2023-10-09T09:11:12;986.6;;;8.1;58.6
79000;BME280;68406;53.914;27.416;2023-10-09T09:16:18;986.6;;;8.2;58.4
79000;BME280;68406;53.914;27.416;2023-10-09T09:21:06;986.5;;;8.3;58.3
79000;BME280;68406;53.914;27.416;2023-10-09T09:26:05;986.5;;;8.6;57.9
79000;BME280;68406;53.914;27.416;2023-10-09T09:30:39;986.6;;;8.4;57.9
79000;BME280;68406;53.914;27.416;2023-10-09T09:36:06;986.6;;;8.3;57.9
79000;BME280;68406;53.914;27.416;2023-10-09T09:40:45;986.6;;;8.2;58.4
79000;BME280;68406;53.914;27.416;2023-10-09T09:45:51;986.4;;;8.4;58.2
79000;BME280;68406;53.914;27.416;2023-10-09T09:51:19;986.4;;;8.6;57.4
79000;BME280;68406;53.914;27.416;2023-10-09T09:55:55;986.4;;;9;56.2
79000;BME280;68406;53.914;27.416;2023-10-09T10:01:08;986.3;;;9.4;55.2
79000;BME280;68406;53.914;27.416;2023-10-09T10:06:17;986.3;;;9.9;54
79000;BME280;68406;53.914;27.416;2023-10-09T10:11:03;986.1;;;10.3;53.1
79000;BME280;68406;53.914;27.416;2023-10-09T10:16:06;986;;;10.6;52.7
79000;BME280;68406;53.914;27.416;2023-10-09T10:20:52;986;;;10.8;52
79000;BME280;68406;53.914;27.416;2023-10-09T10:26:15;986;;;10.7;51.8
79000;BME280;68406;53.914;27.416;2023-10-09T10:30:57;985.9;;;10.8;51.2
79000;BME280;68406;53.914;27.416;2023-10-09T10:35:45;985.8;;;11.2;50.4
79000;BME280;68406;53.914;27.416;2023-10-09T10:41:19;985.7;;;12.2;48.6
79000;BME280;68406;53.914;27.416;2023-10-09T10:46:01;985.7;;;12.1;48.2
79000;BME280;68406;53.914;27.416;2023-10-09T10:51:17;985.6;;;12.9;46.1
79000;BME280;68406;53.914;27.416;2023-10-09T10:56:15;985.5;;;13.6;44.3
79000;BME280;68406;53.914;27.416;2023-10-09T11:01:03;985.5;;;15.2;40.6
79000;BME280;68406;53.914;27.416;2023-10-09T11:06:03;985.3;;;15.7;39.8
79000;BME280;68406;53.914;27.416;2023-10-09T11:10:51;985.3;;;15.8;38.7
79000;BME280;68406;53.914;27.416;2023-10-09T11:15:57;985.3;;;15.6;38.8
79000;BME280;68406;53.914;27.416;2023-10-09T11:20:39;985.3;;;14.9;39.2
79000;BME280;68406;53.914;27.416;2023-10-09T11:25:41;985.3;;;13.5;40.7
79000;BME280;68406;53.914;27.416;2023-10-09T11:31:19;985.2;;;12.6;42.7
79000;BME280;68406;53.914;27.416;2023-10-09T11:35:57;985.5;;;11.8;45
79000;BME280;68406;53.914;27.416;2023-10-09T11:41:19;985.8;;;10.3;50.2
79000;BME280;68406;53.914;27.416;2023-10-09T11:46:21;985.5;;;8.8;52.7
79000;BME280;68406;53.914;27.416;2023-10-09T11:50:59;985.3;;;8;53.4
79000;BME280;68406;53.914;27.416;2023-10-09T11:56:05;985.1;;;8.3;53.2
79000;BME280;68406;53.914;27.416;2023-10-09T12:00:51;984.9;;;10.9;48.4
79000;BME280;68406;53.914;27.416;2023-10-09T12:06:03;984.7;;;13.5;43.7
79000;BME280;68406;53.914;27.416;2023-10-09T12:10:46;984.6;;;16.7;38.7
79000;BME280;68406;53.914;27.416;2023-10-09T12:15:52;984.5;;;19;35.3
79000;BME280;68406;53.914;27.416;2023-10-09T12:21:20;984.4;;;20.7;32.6
79000;BME280;68406;53.914;27.416;2023-10-09T12:25:39;984.4;;;19.8;33.1
79000;BME280;68406;53.914;27.416;2023-10-09T12:31:19;984.4;;;22;29.8
79000;BME280;68406;53.914;27.416;2023-10-09T12:36:19;984.4;;;21;31.1
79000;BME280;68406;53.914;27.416;2023-10-09T12:41:06;984.4;;;18.8;34.2
79000;BME280;68406;53.914;27.416;2023-10-09T12:45:42;984.5;;;16.5;37.7
79000;BME280;68406;53.914;27.416;2023-10-09T12:50:45;984.6;;;13.9;42.4
79000;BME280;68406;53.914;27.416;2023-10-09T12:56:05;984.6;;;11.9;46.8
79000;BME280;68406;53.914;27.416;2023-10-09T13:00:57;984.7;;;10.9;50.2
79000;BME280;68406;53.914;27.416;2023-10-09T13:05:39;984.9;;;10.3;52.3
79000;BME280;68406;53.914;27.416;2023-10-09T13:11:19;984.9;;;9.4;54
79000;BME280;68406;53.914;27.416;2023-10-09T13:15:51;985;;;8.6;57.2
79000;BME280;68406;53.914;27.416;2023-10-09T13:21:18;985;;;8;60.1
79000;BME280;68406;53.914;27.416;2023-10-09T13:26:12;984.8;;;8;60.3
79000;BME280;68406;53.914;27.416;2023-10-09T13:31:20;984.8;;;8.2;59.9
79000;BME280;68406;53.914;27.416;2023-10-09T13:36:20;984.7;;;8;61
79000;BME280;68406;53.914;27.416;2023-10-09T13:40:39;984.7;;;7.8;62.7
79000;BME280;68406;53.914;27.416;2023-10-09T13:45:39;984.8;;;7.7;63.6
79000;BME280;68406;53.914;27.416;2023-10-09T13:50:39;984.8;;;7.9;63.2
79000;BME280;68406;53.914;27.416;2023-10-09T13:55:46;984.6;;;11.9;52.3
79000;BME280;68406;53.914;27.416;2023-10-09T14:05:57;984.3;;;15.7;46.3
79000;BME280;68406;53.914;27.416;2023-10-09T14:11:21;984.2;;;21;36
79000;BME280;68406;53.914;27.416;2023-10-09T14:16:09;984.1;;;22.7;34.8
79000;BME280;68406;53.914;27.416;2023-10-09T14:21:22;984.1;;;17.9;37.4
79000;BME280;68406;53.914;27.416;2023-10-09T14:26:07;984.2;;;14.1;44.3
79000;BME280;68406;53.914;27.416;2023-10-09T14:30:39;984.3;;;11.7;48.3
79000;BME280;68406;53.914;27.416;2023-10-09T14:35:40;984.3;;;10.5;51.9
79000;BME280;68406;53.914;27.416;2023-10-09T14:40:51;984.3;;;10.4;52.9
79000;BME280;68406;53.914;27.416;2023-10-09T14:45:54;984.3;;;11.5;51.4
79000;BME280;68406;53.914;27.416;2023-10-09T14:50:45;984.2;;;14.1;45.8
79000;BME280;68406;53.914;27.416;2023-10-09T14:55:55;984.2;;;15.7;42.6
79000;BME280;68406;53.914;27.416;2023-10-09T15:01:19;984.2;;;16.2;42.3
79000;BME280;68406;53.914;27.416;2023-10-09T15:05:59;984.1;;;15.8;41.1
79000;BME280;68406;53.914;27.416;2023-10-09T15:11:22;984.1;;;15.2;41.7
79000;BME280;68406;53.914;27.416;2023-10-09T15:16:21;984.1;;;13.9;44.2
79000;BME280;68406;53.914;27.416;2023-10-09T15:21:07;984.2;;;11.6;49.5
79000;BME280;68406;53.914;27.416;2023-10-09T15:25:47;984.3;;;10.2;52.7
79000;BME280;68406;53.914;27.416;2023-10-09T15:30:55;984.3;;;9;56.3
79000;BME280;68406;53.914;27.416;2023-10-09T15:35:54;984.3;;;8.1;59.3
79000;BME280;68406;53.914;27.416;2023-10-09T15:41:11;984.3;;;7.6;61.2
79000;BME280;68406;53.914;27.416;2023-10-09T15:45:41;984.3;;;7.3;62.9
79000;BME280;68406;53.914;27.416;2023-10-09T15:51:22;984.4;;;7;64
79000;BME280;68406;53.914;27.416;2023-10-09T15:55:48;984.4;;;6.8;64.8
79000;BME280;68406;53.914;27.416;2023-10-09T16:01:19;984.4;;;6.7;65.4
79000;BME280;68406;53.914;27.416;2023-10-09T16:06:20;984.4;;;6.7;66.1
79000;BME280;68406;53.914;27.416;2023-10-09T16:10:39;984.5;;;6.6;66.7
79000;BME280;68406;53.914;27.416;2023-10-09T16:15:40;984.6;;;6.5;67.4
79000;BME280;68406;53.914;27.416;2023-10-09T16:20:39;984.6;;;6.3;68.4
79000;BME280;68406;53.914;27.416;2023-10-09T16:25:40;984.7;;;6.2;68.8
79000;BME280;68406;53.914;27.416;2023-10-09T16:31:10;984.7;;;6.1;69.2
79000;BME280;68406;53.914;27.416;2023-10-09T16:35:56;984.7;;;5.9;70.1
79000;BME280;68406;53.914;27.416;2023-10-09T16:41:22;984.7;;;5.8;70.2
79000;BME280;68406;53.914;27.416;2023-10-09T16:46:10;984.7;;;5.8;70.4
79000;BME280;68406;53.914;27.416;2023-10-09T16:51:20;984.7;;;5.8;70.4
79000;BME280;68406;53.914;27.416;2023-10-09T16:56:20;984.7;;;5.9;70.2
79000;BME280;68406;53.914;27.416;2023-10-09T17:00:55;984.7;;;5.9;70.3
79000;BME280;68406;53.914;27.416;2023-10-09T17:06:08;984.8;;;5.8;70.4
79000;BME280;68406;53.914;27.416;2023-10-09T17:10:40;984.7;;;5.8;70.4
79000;BME280;68406;53.914;27.416;2023-10-09T17:15:40;984.7;;;5.7;70.8
79000;BME280;68406;53.914;27.416;2023-10-09T17:20:48;984.7;;;5.7;70.7
79000;BME280;68406;53.914;27.416;2023-10-09T17:25:46;984.7;;;5.7;70.9
79000;BME280;68406;53.914;27.416;2023-10-09T17:31:20;984.7;;;5.7;70.9
79000;BME280;68406;53.914;27.416;2023-10-09T17:36:22;984.8;;;5.7;71.3
79000;BME280;68406;53.914;27.416;2023-10-09T17:41:20;984.7;;;5.5;71.6
79000;BME280;68406;53.914;27.416;2023-10-09T17:46:18;984.7;;;5.4;72
79000;BME280;68406;53.914;27.416;2023-10-09T17:51:22;984.7;;;5.4;72.4
79000;BME280;68406;53.914;27.416;2023-10-09T17:55:40;984.7;;;5.3;72.8
79000;BME280;68406;53.914;27.416;2023-10-09T18:00:40;984.8;;;5.2;73.1
79000;BME280;68406;53.914;27.416;2023-10-09T18:06:08;984.8;;;5.2;73.5
79000;BME280;68406;53.914;27.416;2023-10-09T18:11:22;984.8;;;5.2;73.8
79000;BME280;68406;53.914;27.416;2023-10-09T18:15:50;984.8;;;5.2;73.8
79000;BME280;68406;53.914;27.416;2023-10-09T18:20:50;984.8;;;5.2;73.9
79000;BME280;68406;53.914;27.416;2023-10-09T18:26:10;984.7;;;5.1;74.2
79000;BME280;68406;53.914;27.416;2023-10-09T18:31:09;984.7;;;5.1;74.4
79000;BME280;68406;53.914;27.416;2023-10-09T18:36:20;984.7;;;5;74.8
79000;BME280;68406;53.914;27.416;2023-10-09T18:41:08;984.7;;;5;75.2
79000;BME280;68406;53.914;27.416;2023-10-09T18:45:40;984.7;;;4.9;75.5
79000;BME280;68406;53.914;27.416;2023-10-09T18:50:46;984.7;;;4.9;75.6
79000;BME280;68406;53.914;27.416;2023-10-09T18:55:58;984.7;;;4.8;75.9
79000;BME280;68406;53.914;27.416;2023-10-09T19:01:08;984.7;;;4.8;76.1
79000;BME280;68406;53.914;27.416;2023-10-09T19:05:40;984.8;;;4.8;76.2
79000;BME280;68406;53.914;27.416;2023-10-09T19:10:57;984.8;;;4.8;76.2
79000;BME280;68406;53.914;27.416;2023-10-09T19:16:08;984.8;;;4.8;76.2
79000;BME280;68406;53.914;27.416;2023-10-09T19:21:06;984.8;;;4.9;76
79000;BME280;68406;53.914;27.416;2023-10-09T19:26:14;984.8;;;4.9;75.9
79000;BME280;68406;53.914;27.416;2023-10-09T19:31:02;984.7;;;4.9;75.7
79000;BME280;68406;53.914;27.416;2023-10-09T19:35:40;984.7;;;4.9;75.4
79000;BME280;68406;53.914;27.416;2023-10-09T19:40:49;984.8;;;4.9;75.4
79000;BME280;68406;53.914;27.416;2023-10-09T19:45:40;984.7;;;4.9;75.3
79000;BME280;68406;53.914;27.416;2023-10-09T19:51:20;984.7;;;4.8;75.5
79000;BME280;68406;53.914;27.416;2023-10-09T19:55:46;984.8;;;4.8;75.6
79000;BME280;68406;53.914;27.416;2023-10-09T20:00:40;984.8;;;4.7;75.8
79000;BME280;68406;53.914;27.416;2023-10-09T20:06:10;984.9;;;4.7;75.9
79000;BME280;68406;53.914;27.416;2023-10-09T20:11:08;984.9;;;4.6;76.4
79000;BME280;68406;53.914;27.416;2023-10-09T20:16:22;984.8;;;4.5;76.6
79000;BME280;68406;53.914;27.416;2023-10-09T20:21:04;984.8;;;4.4;76.7
79000;BME280;68406;53.914;27.416;2023-10-09T20:25:40;984.8;;;4.4;77
79000;BME280;68406;53.914;27.416;2023-10-09T20:30:46;984.9;;;4.3;77.4
79000;BME280;68406;53.914;27.416;2023-10-09T20:36:01;984.9;;;4.2;77.6
79000;BME280;68406;53.914;27.416;2023-10-09T20:41:20;985;;;4.2;77.9
79000;BME280;68406;53.914;27.416;2023-10-09T20:45:58;985.1;;;4.1;78.3
79000;BME280;68406;53.914;27.416;2023-10-09T20:51:06;985.1;;;4;78.5
79000;BME280;68406;53.914;27.416;2023-10-09T20:56:12;985.2;;;4;78.6
79000;BME280;68406;53.914;27.416;2023-10-09T21:01:08;985.2;;;4;78.6
79000;BME280;68406;53.914;27.416;2023-10-09T21:06:20;985.2;;;4;78.5
79000;BME280;68406;53.914;27.416;2023-10-09T21:11:08;985.3;;;4.1;78.2
79000;BME280;68406;53.914;27.416;2023-10-09T21:15:40;985.4;;;4.2;77.9
79000;BME280;68406;53.914;27.416;2023-10-09T21:20:40;985.4;;;4.3;77.6
79000;BME280;68406;53.914;27.416;2023-10-09T21:25:40;985.5;;;4.3;77.5
79000;BME280;68406;53.914;27.416;2023-10-09T21:31:22;985.5;;;4.3;77.3
79000;BME280;68406;53.914;27.416;2023-10-09T21:36:02;985.5;;;4.4;76.9
79000;BME280;68406;53.914;27.416;2023-10-09T21:40:40;985.4;;;4.5;76.6
79000;BME280;68406;53.914;27.416;2023-10-09T21:46:12;985.4;;;4.5;76.4
79000;BME280;68406;53.914;27.416;2023-10-09T21:51:08;985.5;;;4.5;76.4
79000;BME280;68406;53.914;27.416;2023-10-09T21:56:22;985.5;;;4.4;76.5
79000;BME280;68406;53.914;27.416;2023-10-09T22:01:09;985.5;;;4.3;76.7
79000;BME280;68406;53.914;27.416;2023-10-09T22:05:54;985.4;;;4.2;76.9
79000;BME280;68406;53.914;27.416;2023-10-09T22:10:41;985.4;;;4.2;76.8
79000;BME280;68406;53.914;27.416;2023-10-09T22:15:52;985.4;;;4.3;76.6
79000;BME280;68406;53.914;27.416;2023-10-09T22:21:22;985.4;;;4.4;76.5
79000;BME280;68406;53.914;27.416;2023-10-09T22:26:12;985.5;;;4.5;76.2
79000;BME280;68406;53.914;27.416;2023-10-09T22:31:08;985.5;;;4.6;75.6
79000;BME280;68406;53.914;27.416;2023-10-09T22:36:12;985.5;;;4.7;75.3
79000;BME280;68406;53.914;27.416;2023-10-09T22:41:08;985.5;;;4.8;75
79000;BME280;68406;53.914;27.416;2023-10-09T22:46:22;985.6;;;4.8;74.7
79000;BME280;68406;53.914;27.416;2023-10-09T22:50:58;985.6;;;4.9;74.4
79000;BME280;68406;53.914;27.416;2023-10-09T22:56:08;985.6;;;4.9;74.3
79000;BME280;68406;53.914;27.416;2023-10-09T23:00:58;985.7;;;4.8;74.6
79000;BME280;68406;53.914;27.416;2023-10-09T23:05:59;985.7;;;4.6;74.9
79000;BME280;68406;53.914;27.416;2023-10-09T23:11:22;985.7;;;4.4;75.4
79000;BME280;68406;53.914;27.416;2023-10-09T23:16:10;985.7;;;4.3;75.7
79000;BME280;68406;53.914;27.416;2023-10-09T23:20:40;985.7;;;4.1;76.2
79000;BME280;68406;53.914;27.416;2023-10-09T23:26:12;985.7;;;4;76.5
79000;BME280;68406;53.914;27.416;2023-10-09T23:30:42;985.7;;;3.9;76.8
79000;BME280;68406;53.914;27.416;2023-10-09T23:36:06;985.8;;;3.7;77.2
79000;BME280;68406;53.914;27.416;2023-10-09T23:40:46;985.8;;;3.7;77.4
79000;BME280;68406;53.914;27.416;2023-10-09T23:46:02;985.8;;;3.6;77.6
79000;BME280;68406;53.914;27.416;2023-10-09T23:50:46;985.8;;;3.5;77.8
79000;BME280;68406;53.914;27.416;2023-10-09T23:55:58;985.8;;;3.5;77.9
